sensor_id;sensor_type;location;lat;lon;timestamp;temperature;humidity
5358;DHT22;2702;51.014;7.170;2023-04-24T00:00:16;11.20;99.90
5358;DHT22;2702;51.014;7.170;2023-04-24T00:02:44;11.10;99.90
5358;DHT22;2702;51.014;7.170;2023-04-24T00:05:14;11.00;99.90
5358;DHT22;2702;51.014;7.170;2023-04-24T00:07:41;11.00;99.90
5358;DHT22;2702;51.014;7.170;2023-04-24T00:10:08;11.00;99.90
5358;DHT22;2702;51.014;7.170;2023-04-24T00:12:34;11.00;99.90
5358;DHT22;2702;51.014;7.170;2023-04-24T00:15:01;10.90;99.90
5358;DHT22;2702;51.014;7.170;2023-04-24T00:17:28;10.90;99.90
5358;DHT22;2702;51.014;7.170;2023-04-24T00:19:53;10.90;99.90
5358;DHT22;2702;51.014;7.170;2023-04-24T00:22:27;10.80;99.90
5358;DHT22;2702;51.014;7.170;2023-04-24T00:24:53;10.80;99.90
5358;DHT22;2702;51.014;7.170;2023-04-24T00:27:20;10.80;99.90
5358;DHT22;2702;51.014;7.170;2023-04-24T00:29:46;10.80;99.90
5358;DHT22;2702;51.014;7.170;2023-04-24T00:32:12;10.80;99.90
5358;DHT22;2702;51.014;7.170;2023-04-24T00:34:39;10.80;99.90
5358;DHT22;2702;51.014;7.170;2023-04-24T00:37:05;10.90;99.90
5358;DHT22;2702;51.014;7.170;2023-04-24T00:39:32;10.90;99.90
5358;DHT22;2702;51.014;7.170;2023-04-24T00:41:58;10.90;99.90
5358;DHT22;2702;51.014;7.170;2023-04-24T00:44:24;10.90;99.90
5358;DHT22;2702;51.014;7.170;2023-04-24T00:46:51;10.90;99.90
5358;DHT22;2702;51.014;7.170;2023-04-24T00:49:23;11.00;99.90
5358;DHT22;2702;51.014;7.170;2023-04-24T00:51:49;11.00;99.90
5358;DHT22;2702;51.014;7.170;2023-04-24T00:54:17;11.00;99.90
5358;DHT22;2702;51.014;7.170;2023-04-24T00:56:44;11.00;99.90
5358;DHT22;2702;51.014;7.170;2023-04-24T00:59:16;11.10;99.90
5358;DHT22;2702;51.014;7.170;2023-04-24T01:01:43;11.10;99.90
5358;DHT22;2702;51.014;7.170;2023-04-24T01:04:12;11.20;99.90
5358;DHT22;2702;51.014;7.170;2023-04-24T01:06:40;11.20;99.90
5358;DHT22;2702;51.014;7.170;2023-04-24T01:09:07;11.20;99.90
5358;DHT22;2702;51.014;7.170;2023-04-24T01:11:36;11.30;99.90
5358;DHT22;2702;51.014;7.170;2023-04-24T01:14:03;11.30;99.90
5358;DHT22;2702;51.014;7.170;2023-04-24T01:16:29;11.10;99.90
5358;DHT22;2702;51.014;7.170;2023-04-24T01:18:55;11.00;99.90
5358;DHT22;2702;51.014;7.170;2023-04-24T01:21:21;11.10;99.90
5358;DHT22;2702;51.014;7.170;2023-04-24T01:23:49;11.00;99.90
5358;DHT22;2702;51.014;7.170;2023-04-24T01:26:16;10.80;99.90
5358;DHT22;2702;51.014;7.170;2023-04-24T01:28:43;10.80;99.90
5358;DHT22;2702;51.014;7.170;2023-04-24T01:31:09;10.80;99.90
5358;DHT22;2702;51.014;7.170;2023-04-24T01:33:35;10.70;99.90
5358;DHT22;2702;51.014;7.170;2023-04-24T01:36:01;10.40;99.90
5358;DHT22;2702;51.014;7.170;2023-04-24T01:38:27;10.30;99.90
5358;DHT22;2702;51.014;7.170;2023-04-24T01:40:53;10.20;99.90
5358;DHT22;2702;51.014;7.170;2023-04-24T01:43:19;10.20;99.90
5358;DHT22;2702;51.014;7.170;2023-04-24T01:45:45;10.30;99.90
5358;DHT22;2702;51.014;7.170;2023-04-24T01:48:13;10.40;99.90
5358;DHT22;2702;51.014;7.170;2023-04-24T01:50:39;10.50;99.90
5358;DHT22;2702;51.014;7.170;2023-04-24T01:53:05;10.50;99.90
5358;DHT22;2702;51.014;7.170;2023-04-24T01:55:31;10.40;99.90
5358;DHT22;2702;51.014;7.170;2023-04-24T01:57:58;10.30;99.90
5358;DHT22;2702;51.014;7.170;2023-04-24T02:00:25;10.20;99.90
5358;DHT22;2702;51.014;7.170;2023-04-24T02:02:51;10.00;99.90
5358;DHT22;2702;51.014;7.170;2023-04-24T02:05:17;9.90;99.90
5358;DHT22;2702;51.014;7.170;2023-04-24T02:07:43;9.90;99.90
5358;DHT22;2702;51.014;7.170;2023-04-24T02:10:10;9.80;99.90
5358;DHT22;2702;51.014;7.170;2023-04-24T02:12:36;9.60;99.90
5358;DHT22;2702;51.014;7.170;2023-04-24T02:15:03;9.60;99.90
5358;DHT22;2702;51.014;7.170;2023-04-24T02:17:29;9.60;99.90
5358;DHT22;2702;51.014;7.170;2023-04-24T02:19:54;9.40;99.90
5358;DHT22;2702;51.014;7.170;2023-04-24T02:22:20;9.30;99.90
5358;DHT22;2702;51.014;7.170;2023-04-24T02:24:46;9.30;99.90
5358;DHT22;2702;51.014;7.170;2023-04-24T02:27:12;9.30;99.90
5358;DHT22;2702;51.014;7.170;2023-04-24T02:29:38;9.10;99.90
5358;DHT22;2702;51.014;7.170;2023-04-24T02:32:04;9.10;99.90
5358;DHT22;2702;51.014;7.170;2023-04-24T02:34:30;9.10;99.90
5358;DHT22;2702;51.014;7.170;2023-04-24T02:36:56;8.90;99.90
5358;DHT22;2702;51.014;7.170;2023-04-24T02:39:22;8.90;99.90
5358;DHT22;2702;51.014;7.170;2023-04-24T02:41:48;8.80;99.90
5358;DHT22;2702;51.014;7.170;2023-04-24T02:44:13;8.80;99.90
5358;DHT22;2702;51.014;7.170;2023-04-24T02:46:39;8.70;99.90
5358;DHT22;2702;51.014;7.170;2023-04-24T02:49:07;8.70;99.90
5358;DHT22;2702;51.014;7.170;2023-04-24T02:51:33;8.70;99.90
5358;DHT22;2702;51.014;7.170;2023-04-24T02:53:59;8.70;99.90
5358;DHT22;2702;51.014;7.170;2023-04-24T02:56:25;8.70;99.90
5358;DHT22;2702;51.014;7.170;2023-04-24T02:58:51;8.90;99.90
5358;DHT22;2702;51.014;7.170;2023-04-24T03:01:17;8.90;99.90
5358;DHT22;2702;51.014;7.170;2023-04-24T03:03:43;9.00;99.90
5358;DHT22;2702;51.014;7.170;2023-04-24T03:06:09;9.10;99.90
5358;DHT22;2702;51.014;7.170;2023-04-24T03:08:35;9.20;99.90
5358;DHT22;2702;51.014;7.170;2023-04-24T03:11:01;9.20;99.90
5358;DHT22;2702;51.014;7.170;2023-04-24T03:13:27;9.20;99.90
5358;DHT22;2702;51.014;7.170;2023-04-24T03:15:53;9.20;99.90
5358;DHT22;2702;51.014;7.170;2023-04-24T03:18:19;9.20;99.90
5358;DHT22;2702;51.014;7.170;2023-04-24T03:20:46;9.20;99.90
5358;DHT22;2702;51.014;7.170;2023-04-24T03:23:12;9.20;99.90
5358;DHT22;2702;51.014;7.170;2023-04-24T03:25:39;9.10;99.90
5358;DHT22;2702;51.014;7.170;2023-04-24T03:28:05;9.10;99.90
5358;DHT22;2702;51.014;7.170;2023-04-24T03:30:30;9.20;99.90
5358;DHT22;2702;51.014;7.170;2023-04-24T03:32:56;9.30;99.90
5358;DHT22;2702;51.014;7.170;2023-04-24T03:35:22;9.20;99.90
5358;DHT22;2702;51.014;7.170;2023-04-24T03:37:48;9.20;99.90
5358;DHT22;2702;51.014;7.170;2023-04-24T03:40:14;9.20;99.90
5358;DHT22;2702;51.014;7.170;2023-04-24T03:42:40;9.20;99.90
5358;DHT22;2702;51.014;7.170;2023-04-24T03:45:07;9.10;99.90
5358;DHT22;2702;51.014;7.170;2023-04-24T03:47:33;9.20;99.90
5358;DHT22;2702;51.014;7.170;2023-04-24T03:49:58;9.30;99.90
5358;DHT22;2702;51.014;7.170;2023-04-24T03:52:25;9.30;99.90
5358;DHT22;2702;51.014;7.170;2023-04-24T03:54:51;9.20;99.90
5358;DHT22;2702;51.014;7.170;2023-04-24T03:57:16;9.30;99.90
5358;DHT22;2702;51.014;7.170;2023-04-24T03:59:42;9.20;99.90
5358;DHT22;2702;51.014;7.170;2023-04-24T04:02:08;9.20;99.90
5358;DHT22;2702;51.014;7.170;2023-04-24T04:04:34;9.10;99.90
5358;DHT22;2702;51.014;7.170;2023-04-24T04:07:00;9.10;99.90
5358;DHT22;2702;51.014;7.170;2023-04-24T04:09:29;9.00;99.90
5358;DHT22;2702;51.014;7.170;2023-04-24T04:11:55;9.00;99.90
5358;DHT22;2702;51.014;7.170;2023-04-24T04:14:22;8.90;99.90
5358;DHT22;2702;51.014;7.170;2023-04-24T04:16:48;8.90;99.90
5358;DHT22;2702;51.014;7.170;2023-04-24T04:19:15;8.90;99.90
5358;DHT22;2702;51.014;7.170;2023-04-24T04:21:40;8.90;99.90
5358;DHT22;2702;51.014;7.170;2023-04-24T04:24:06;9.00;99.90
5358;DHT22;2702;51.014;7.170;2023-04-24T04:26:33;8.90;99.90
5358;DHT22;2702;51.014;7.170;2023-04-24T04:29:00;8.90;99.90
5358;DHT22;2702;51.014;7.170;2023-04-24T04:31:26;9.00;99.90
5358;DHT22;2702;51.014;7.170;2023-04-24T04:33:52;9.00;99.90
5358;DHT22;2702;51.014;7.170;2023-04-24T04:36:17;9.00;99.90
5358;DHT22;2702;51.014;7.170;2023-04-24T04:38:44;9.00;99.90
5358;DHT22;2702;51.014;7.170;2023-04-24T04:41:10;8.90;99.90
5358;DHT22;2702;51.014;7.170;2023-04-24T04:43:36;9.00;99.90
5358;DHT22;2702;51.014;7.170;2023-04-24T04:46:03;9.00;99.90
5358;DHT22;2702;51.014;7.170;2023-04-24T04:48:29;9.00;99.90
5358;DHT22;2702;51.014;7.170;2023-04-24T04:50:57;9.00;99.90
5358;DHT22;2702;51.014;7.170;2023-04-24T04:53:23;9.00;99.90
5358;DHT22;2702;51.014;7.170;2023-04-24T04:55:49;9.10;99.90
5358;DHT22;2702;51.014;7.170;2023-04-24T04:58:15;9.00;99.90
5358;DHT22;2702;51.014;7.170;2023-04-24T05:00:41;8.90;99.90
5358;DHT22;2702;51.014;7.170;2023-04-24T05:03:08;9.00;99.90
5358;DHT22;2702;51.014;7.170;2023-04-24T05:05:34;9.10;99.90
5358;DHT22;2702;51.014;7.170;2023-04-24T05:08:00;9.00;99.90
5358;DHT22;2702;51.014;7.170;2023-04-24T05:10:26;9.00;99.90
5358;DHT22;2702;51.014;7.170;2023-04-24T05:12:52;9.10;99.90
5358;DHT22;2702;51.014;7.170;2023-04-24T05:15:18;9.10;99.90
5358;DHT22;2702;51.014;7.170;2023-04-24T05:17:44;9.00;99.90
5358;DHT22;2702;51.014;7.170;2023-04-24T05:20:10;8.90;99.90
5358;DHT22;2702;51.014;7.170;2023-04-24T05:22:35;8.90;99.90
5358;DHT22;2702;51.014;7.170;2023-04-24T05:25:02;8.90;99.90
5358;DHT22;2702;51.014;7.170;2023-04-24T05:27:28;8.90;99.90
5358;DHT22;2702;51.014;7.170;2023-04-24T05:29:54;8.90;99.90
5358;DHT22;2702;51.014;7.170;2023-04-24T05:32:20;8.90;99.90
5358;DHT22;2702;51.014;7.170;2023-04-24T05:34:45;8.90;99.90
5358;DHT22;2702;51.014;7.170;2023-04-24T05:37:12;8.90;99.90
5358;DHT22;2702;51.014;7.170;2023-04-24T05:39:38;8.90;99.90
5358;DHT22;2702;51.014;7.170;2023-04-24T05:42:05;8.90;99.90
5358;DHT22;2702;51.014;7.170;2023-04-24T05:44:31;8.80;99.90
5358;DHT22;2702;51.014;7.170;2023-04-24T05:46:56;8.80;99.90
5358;DHT22;2702;51.014;7.170;2023-04-24T05:49:23;8.70;99.90
5358;DHT22;2702;51.014;7.170;2023-04-24T05:51:49;8.70;99.90
5358;DHT22;2702;51.014;7.170;2023-04-24T05:54:15;8.70;99.90
5358;DHT22;2702;51.014;7.170;2023-04-24T05:56:41;8.70;99.90
5358;DHT22;2702;51.014;7.170;2023-04-24T05:59:07;8.70;99.90
5358;DHT22;2702;51.014;7.170;2023-04-24T06:01:33;8.80;99.90
5358;DHT22;2702;51.014;7.170;2023-04-24T06:03:59;8.70;99.90
5358;DHT22;2702;51.014;7.170;2023-04-24T06:06:26;8.70;99.90
5358;DHT22;2702;51.014;7.170;2023-04-24T06:08:52;8.70;99.90
5358;DHT22;2702;51.014;7.170;2023-04-24T06:11:18;8.60;99.90
5358;DHT22;2702;51.014;7.170;2023-04-24T06:13:44;8.60;99.90
5358;DHT22;2702;51.014;7.170;2023-04-24T06:16:11;8.50;99.90
5358;DHT22;2702;51.014;7.170;2023-04-24T06:18:37;8.50;99.90
5358;DHT22;2702;51.014;7.170;2023-04-24T06:21:03;8.50;99.90
5358;DHT22;2702;51.014;7.170;2023-04-24T06:23:29;8.40;99.90
5358;DHT22;2702;51.014;7.170;2023-04-24T06:25:58;8.40;99.90
5358;DHT22;2702;51.014;7.170;2023-04-24T06:28:24;8.30;99.90
5358;DHT22;2702;51.014;7.170;2023-04-24T06:30:50;8.20;99.90
5358;DHT22;2702;51.014;7.170;2023-04-24T06:33:16;8.20;99.90
5358;DHT22;2702;51.014;7.170;2023-04-24T06:35:42;8.20;99.90
5358;DHT22;2702;51.014;7.170;2023-04-24T06:38:08;8.20;99.90
5358;DHT22;2702;51.014;7.170;2023-04-24T06:40:34;8.10;99.90
5358;DHT22;2702;51.014;7.170;2023-04-24T06:43:00;8.10;99.90
5358;DHT22;2702;51.014;7.170;2023-04-24T06:45:29;8.20;99.90
5358;DHT22;2702;51.014;7.170;2023-04-24T06:47:55;8.20;99.90
5358;DHT22;2702;51.014;7.170;2023-04-24T06:50:22;8.10;99.90
5358;DHT22;2702;51.014;7.170;2023-04-24T06:52:48;8.10;99.90
5358;DHT22;2702;51.014;7.170;2023-04-24T06:55:13;8.10;99.90
5358;DHT22;2702;51.014;7.170;2023-04-24T06:57:42;8.00;99.90
5358;DHT22;2702;51.014;7.170;2023-04-24T07:00:10;8.00;99.90
5358;DHT22;2702;51.014;7.170;2023-04-24T07:02:36;8.10;99.90
5358;DHT22;2702;51.014;7.170;2023-04-24T07:05:04;8.10;99.90
5358;DHT22;2702;51.014;7.170;2023-04-24T07:07:30;8.00;99.90
5358;DHT22;2702;51.014;7.170;2023-04-24T07:09:56;8.00;99.90
5358;DHT22;2702;51.014;7.170;2023-04-24T07:12:23;8.00;99.90
5358;DHT22;2702;51.014;7.170;2023-04-24T07:14:50;8.00;99.90
5358;DHT22;2702;51.014;7.170;2023-04-24T07:17:16;8.10;99.90
5358;DHT22;2702;51.014;7.170;2023-04-24T07:19:42;8.10;99.90
5358;DHT22;2702;51.014;7.170;2023-04-24T07:22:08;8.20;99.90
5358;DHT22;2702;51.014;7.170;2023-04-24T07:24:34;8.30;99.90
5358;DHT22;2702;51.014;7.170;2023-04-24T07:27:00;8.30;99.90
5358;DHT22;2702;51.014;7.170;2023-04-24T07:29:26;8.30;99.90
5358;DHT22;2702;51.014;7.170;2023-04-24T07:31:53;8.40;99.90
5358;DHT22;2702;51.014;7.170;2023-04-24T07:34:19;8.40;99.90
5358;DHT22;2702;51.014;7.170;2023-04-24T07:36:46;8.30;99.90
5358;DHT22;2702;51.014;7.170;2023-04-24T07:39:11;8.20;99.90
5358;DHT22;2702;51.014;7.170;2023-04-24T07:41:38;8.20;99.90
5358;DHT22;2702;51.014;7.170;2023-04-24T07:44:04;8.10;99.90
5358;DHT22;2702;51.014;7.170;2023-04-24T07:46:30;8.10;99.90
5358;DHT22;2702;51.014;7.170;2023-04-24T07:48:56;8.10;99.90
5358;DHT22;2702;51.014;7.170;2023-04-24T07:51:22;8.10;99.90
5358;DHT22;2702;51.014;7.170;2023-04-24T07:53:48;7.90;99.90
5358;DHT22;2702;51.014;7.170;2023-04-24T07:56:14;7.90;99.90
5358;DHT22;2702;51.014;7.170;2023-04-24T07:58:40;7.90;99.90
5358;DHT22;2702;51.014;7.170;2023-04-24T08:01:06;7.80;99.90
5358;DHT22;2702;51.014;7.170;2023-04-24T08:03:32;7.50;99.90
5358;DHT22;2702;51.014;7.170;2023-04-24T08:05:58;7.60;99.90
5358;DHT22;2702;51.014;7.170;2023-04-24T08:08:25;7.60;99.90
5358;DHT22;2702;51.014;7.170;2023-04-24T08:10:50;7.50;99.90
5358;DHT22;2702;51.014;7.170;2023-04-24T08:13:16;7.50;99.90
5358;DHT22;2702;51.014;7.170;2023-04-24T08:15:42;7.30;99.90
5358;DHT22;2702;51.014;7.170;2023-04-24T08:18:08;7.30;99.90
5358;DHT22;2702;51.014;7.170;2023-04-24T08:20:37;7.10;99.90
5358;DHT22;2702;51.014;7.170;2023-04-24T08:23:03;7.10;99.90
5358;DHT22;2702;51.014;7.170;2023-04-24T08:25:29;7.00;99.90
5358;DHT22;2702;51.014;7.170;2023-04-24T08:27:55;7.00;99.90
5358;DHT22;2702;51.014;7.170;2023-04-24T08:30:20;6.80;99.90
5358;DHT22;2702;51.014;7.170;2023-04-24T08:32:47;6.80;99.90
5358;DHT22;2702;51.014;7.170;2023-04-24T08:35:13;6.70;99.90
5358;DHT22;2702;51.014;7.170;2023-04-24T08:37:39;6.60;99.90
5358;DHT22;2702;51.014;7.170;2023-04-24T08:40:12;6.50;99.90
5358;DHT22;2702;51.014;7.170;2023-04-24T08:42:42;6.60;99.90
5358;DHT22;2702;51.014;7.170;2023-04-24T08:45:10;6.60;99.90
5358;DHT22;2702;51.014;7.170;2023-04-24T08:47:38;6.70;99.90
5358;DHT22;2702;51.014;7.170;2023-04-24T08:50:06;6.70;99.90
5358;DHT22;2702;51.014;7.170;2023-04-24T08:52:33;6.70;99.90
5358;DHT22;2702;51.014;7.170;2023-04-24T08:55:00;6.70;99.90
5358;DHT22;2702;51.014;7.170;2023-04-24T08:57:26;6.70;99.90
5358;DHT22;2702;51.014;7.170;2023-04-24T08:59:54;6.60;99.90
5358;DHT22;2702;51.014;7.170;2023-04-24T09:02:21;6.60;99.90
5358;DHT22;2702;51.014;7.170;2023-04-24T09:04:50;6.50;99.90
5358;DHT22;2702;51.014;7.170;2023-04-24T09:07:18;6.50;99.90
5358;DHT22;2702;51.014;7.170;2023-04-24T09:09:45;6.40;99.90
5358;DHT22;2702;51.014;7.170;2023-04-24T09:12:11;6.40;99.90
5358;DHT22;2702;51.014;7.170;2023-04-24T09:14:38;6.40;99.90
5358;DHT22;2702;51.014;7.170;2023-04-24T09:17:08;6.40;99.90
5358;DHT22;2702;51.014;7.170;2023-04-24T09:19:33;6.40;99.90
5358;DHT22;2702;51.014;7.170;2023-04-24T09:21:59;6.40;99.90
5358;DHT22;2702;51.014;7.170;2023-04-24T09:24:30;6.40;99.90
5358;DHT22;2702;51.014;7.170;2023-04-24T09:26:57;6.40;99.90
5358;DHT22;2702;51.014;7.170;2023-04-24T09:29:24;6.40;99.90
5358;DHT22;2702;51.014;7.170;2023-04-24T09:31:51;6.40;99.90
5358;DHT22;2702;51.014;7.170;2023-04-24T09:34:22;6.40;99.90
5358;DHT22;2702;51.014;7.170;2023-04-24T09:36:49;6.30;99.90
5358;DHT22;2702;51.014;7.170;2023-04-24T09:39:17;6.40;99.90
5358;DHT22;2702;51.014;7.170;2023-04-24T09:44:21;6.60;99.90
5358;DHT22;2702;51.014;7.170;2023-04-24T09:46:51;6.50;99.90
5358;DHT22;2702;51.014;7.170;2023-04-24T09:49:25;6.50;99.90
5358;DHT22;2702;51.014;7.170;2023-04-24T09:51:52;6.50;99.90
5358;DHT22;2702;51.014;7.170;2023-04-24T09:54:20;6.50;99.90
5358;DHT22;2702;51.014;7.170;2023-04-24T09:56:50;6.40;99.90
5358;DHT22;2702;51.014;7.170;2023-04-24T09:59:19;6.50;99.90
5358;DHT22;2702;51.014;7.170;2023-04-24T10:01:46;6.50;99.90
5358;DHT22;2702;51.014;7.170;2023-04-24T10:04:21;6.50;99.90
5358;DHT22;2702;51.014;7.170;2023-04-24T10:06:49;6.50;99.90
5358;DHT22;2702;51.014;7.170;2023-04-24T10:09:21;6.60;99.90
5358;DHT22;2702;51.014;7.170;2023-04-24T10:11:50;6.70;99.90
5358;DHT22;2702;51.014;7.170;2023-04-24T10:14:19;6.70;99.90
5358;DHT22;2702;51.014;7.170;2023-04-24T10:16:46;6.70;99.90
5358;DHT22;2702;51.014;7.170;2023-04-24T10:19:13;6.90;99.90
5358;DHT22;2702;51.014;7.170;2023-04-24T10:21:42;6.90;99.90
5358;DHT22;2702;51.014;7.170;2023-04-24T10:24:16;7.00;99.90
5358;DHT22;2702;51.014;7.170;2023-04-24T10:26:43;7.10;99.90
5358;DHT22;2702;51.014;7.170;2023-04-24T10:29:11;7.20;99.90
5358;DHT22;2702;51.014;7.170;2023-04-24T10:31:38;7.30;99.90
5358;DHT22;2702;51.014;7.170;2023-04-24T10:34:05;7.30;99.90
5358;DHT22;2702;51.014;7.170;2023-04-24T10:36:34;7.40;99.90
5358;DHT22;2702;51.014;7.170;2023-04-24T10:39:02;7.50;99.90
5358;DHT22;2702;51.014;7.170;2023-04-24T10:41:30;7.40;99.90
5358;DHT22;2702;51.014;7.170;2023-04-24T10:44:07;7.50;99.90
5358;DHT22;2702;51.014;7.170;2023-04-24T10:46:33;7.60;99.90
5358;DHT22;2702;51.014;7.170;2023-04-24T10:48:59;7.70;99.90
5358;DHT22;2702;51.014;7.170;2023-04-24T10:51:50;7.60;99.90
5358;DHT22;2702;51.014;7.170;2023-04-24T10:54:33;7.70;99.90
5358;DHT22;2702;51.014;7.170;2023-04-24T10:57:31;7.70;99.90
5358;DHT22;2702;51.014;7.170;2023-04-24T11:02:40;7.90;99.90
5358;DHT22;2702;51.014;7.170;2023-04-24T11:05:09;7.70;99.90
5358;DHT22;2702;51.014;7.170;2023-04-24T11:08:14;7.80;99.90
5358;DHT22;2702;51.014;7.170;2023-04-24T11:13:10;7.90;99.90
5358;DHT22;2702;51.014;7.170;2023-04-24T11:15:41;8.00;99.90
5358;DHT22;2702;51.014;7.170;2023-04-24T11:18:14;7.80;99.90
5358;DHT22;2702;51.014;7.170;2023-04-24T11:20:44;7.80;99.90
5358;DHT22;2702;51.014;7.170;2023-04-24T11:23:13;7.80;99.90
5358;DHT22;2702;51.014;7.170;2023-04-24T11:25:40;7.70;99.90
5358;DHT22;2702;51.014;7.170;2023-04-24T11:28:07;7.70;99.90
5358;DHT22;2702;51.014;7.170;2023-04-24T11:30:33;7.70;99.90
5358;DHT22;2702;51.014;7.170;2023-04-24T11:33:03;7.60;99.90
5358;DHT22;2702;51.014;7.170;2023-04-24T11:35:35;7.50;99.90
5358;DHT22;2702;51.014;7.170;2023-04-24T11:38:03;7.50;99.90
5358;DHT22;2702;51.014;7.170;2023-04-24T11:40:29;7.60;99.90
5358;DHT22;2702;51.014;7.170;2023-04-24T11:42:55;7.70;99.90
5358;DHT22;2702;51.014;7.170;2023-04-24T11:45:23;7.90;99.90
5358;DHT22;2702;51.014;7.170;2023-04-24T11:47:49;8.10;99.90
5358;DHT22;2702;51.014;7.170;2023-04-24T11:50:18;8.10;99.90
5358;DHT22;2702;51.014;7.170;2023-04-24T11:52:46;8.20;99.90
5358;DHT22;2702;51.014;7.170;2023-04-24T11:57:45;8.40;99.90
5358;DHT22;2702;51.014;7.170;2023-04-24T12:00:22;8.30;99.90
5358;DHT22;2702;51.014;7.170;2023-04-24T12:02:49;8.30;99.90
5358;DHT22;2702;51.014;7.170;2023-04-24T12:05:28;8.30;99.90
5358;DHT22;2702;51.014;7.170;2023-04-24T12:07:56;8.50;99.90
5358;DHT22;2702;51.014;7.170;2023-04-24T12:10:24;8.60;99.90
5358;DHT22;2702;51.014;7.170;2023-04-24T12:12:51;8.80;99.90
5358;DHT22;2702;51.014;7.170;2023-04-24T12:15:18;8.90;99.90
5358;DHT22;2702;51.014;7.170;2023-04-24T12:17:45;9.10;99.90
5358;DHT22;2702;51.014;7.170;2023-04-24T12:20:13;9.10;99.90
5358;DHT22;2702;51.014;7.170;2023-04-24T12:22:56;9.00;99.90
5358;DHT22;2702;51.014;7.170;2023-04-24T12:25:33;9.10;99.90
5358;DHT22;2702;51.014;7.170;2023-04-24T12:30:35;9.00;99.90
5358;DHT22;2702;51.014;7.170;2023-04-24T12:33:03;9.00;99.90
5358;DHT22;2702;51.014;7.170;2023-04-24T12:35:31;8.80;99.90
5358;DHT22;2702;51.014;7.170;2023-04-24T12:38:12;8.70;99.90
5358;DHT22;2702;51.014;7.170;2023-04-24T12:40:38;8.60;99.90
5358;DHT22;2702;51.014;7.170;2023-04-24T12:43:17;8.50;99.90
5358;DHT22;2702;51.014;7.170;2023-04-24T12:45:44;8.50;99.90
5358;DHT22;2702;51.014;7.170;2023-04-24T12:48:11;8.50;99.90
5358;DHT22;2702;51.014;7.170;2023-04-24T12:50:38;8.50;99.90
5358;DHT22;2702;51.014;7.170;2023-04-24T12:53:04;8.50;99.90
5358;DHT22;2702;51.014;7.170;2023-04-24T12:55:30;8.50;99.90
5358;DHT22;2702;51.014;7.170;2023-04-24T12:57:56;8.60;99.90
5358;DHT22;2702;51.014;7.170;2023-04-24T13:00:22;8.70;99.90
5358;DHT22;2702;51.014;7.170;2023-04-24T13:02:47;8.90;99.90
5358;DHT22;2702;51.014;7.170;2023-04-24T13:05:13;9.10;99.90
5358;DHT22;2702;51.014;7.170;2023-04-24T13:07:39;9.20;99.90
5358;DHT22;2702;51.014;7.170;2023-04-24T13:10:06;9.30;99.90
5358;DHT22;2702;51.014;7.170;2023-04-24T13:12:32;9.40;99.90
5358;DHT22;2702;51.014;7.170;2023-04-24T13:14:58;9.50;99.90
5358;DHT22;2702;51.014;7.170;2023-04-24T13:17:24;9.50;99.90
5358;DHT22;2702;51.014;7.170;2023-04-24T13:19:51;9.60;99.90
5358;DHT22;2702;51.014;7.170;2023-04-24T13:22:17;9.70;99.90
5358;DHT22;2702;51.014;7.170;2023-04-24T13:24:47;9.60;99.90
5358;DHT22;2702;51.014;7.170;2023-04-24T13:27:15;9.80;99.90
5358;DHT22;2702;51.014;7.170;2023-04-24T13:29:41;9.90;99.90
5358;DHT22;2702;51.014;7.170;2023-04-24T13:32:08;9.90;99.90
5358;DHT22;2702;51.014;7.170;2023-04-24T13:34:34;10.00;99.90
5358;DHT22;2702;51.014;7.170;2023-04-24T13:37:01;10.00;99.90
5358;DHT22;2702;51.014;7.170;2023-04-24T13:39:29;9.80;99.90
5358;DHT22;2702;51.014;7.170;2023-04-24T13:41:55;9.70;99.90
5358;DHT22;2702;51.014;7.170;2023-04-24T13:44:22;9.60;99.90
5358;DHT22;2702;51.014;7.170;2023-04-24T13:46:50;9.60;99.90
5358;DHT22;2702;51.014;7.170;2023-04-24T13:49:18;9.70;99.90
5358;DHT22;2702;51.014;7.170;2023-04-24T13:51:44;9.90;99.90
5358;DHT22;2702;51.014;7.170;2023-04-24T13:54:11;10.10;99.90
5358;DHT22;2702;51.014;7.170;2023-04-24T13:56:37;10.20;99.90
5358;DHT22;2702;51.014;7.170;2023-04-24T13:59:04;10.30;99.90
5358;DHT22;2702;51.014;7.170;2023-04-24T14:01:31;10.10;99.90
5358;DHT22;2702;51.014;7.170;2023-04-24T14:03:57;10.10;99.90
5358;DHT22;2702;51.014;7.170;2023-04-24T14:06:23;10.00;99.90
5358;DHT22;2702;51.014;7.170;2023-04-24T14:08:50;9.80;99.90
5358;DHT22;2702;51.014;7.170;2023-04-24T14:11:16;9.60;99.90
5358;DHT22;2702;51.014;7.170;2023-04-24T14:13:43;9.60;99.90
5358;DHT22;2702;51.014;7.170;2023-04-24T14:16:10;9.60;99.90
5358;DHT22;2702;51.014;7.170;2023-04-24T14:18:36;9.60;99.90
5358;DHT22;2702;51.014;7.170;2023-04-24T14:21:05;9.60;99.90
5358;DHT22;2702;51.014;7.170;2023-04-24T14:23:32;9.60;99.90
5358;DHT22;2702;51.014;7.170;2023-04-24T14:25:58;9.50;99.90
5358;DHT22;2702;51.014;7.170;2023-04-24T14:28:24;9.50;99.90
5358;DHT22;2702;51.014;7.170;2023-04-24T14:30:51;9.70;99.90
5358;DHT22;2702;51.014;7.170;2023-04-24T14:33:17;10.00;99.90
5358;DHT22;2702;51.014;7.170;2023-04-24T14:35:43;10.20;99.90
5358;DHT22;2702;51.014;7.170;2023-04-24T14:38:10;10.20;99.90
5358;DHT22;2702;51.014;7.170;2023-04-24T14:40:37;10.20;99.90
5358;DHT22;2702;51.014;7.170;2023-04-24T14:43:03;10.30;99.90
5358;DHT22;2702;51.014;7.170;2023-04-24T14:45:29;10.20;99.90
5358;DHT22;2702;51.014;7.170;2023-04-24T14:47:55;10.00;99.90
5358;DHT22;2702;51.014;7.170;2023-04-24T14:50:22;9.90;99.90
5358;DHT22;2702;51.014;7.170;2023-04-24T14:52:48;9.90;99.90
5358;DHT22;2702;51.014;7.170;2023-04-24T14:55:14;10.00;99.90
5358;DHT22;2702;51.014;7.170;2023-04-24T14:57:40;10.10;99.90
5358;DHT22;2702;51.014;7.170;2023-04-24T15:00:07;10.20;99.90
5358;DHT22;2702;51.014;7.170;2023-04-24T15:02:36;10.30;99.90
5358;DHT22;2702;51.014;7.170;2023-04-24T15:05:06;10.20;99.90
5358;DHT22;2702;51.014;7.170;2023-04-24T15:07:32;10.50;99.90
5358;DHT22;2702;51.014;7.170;2023-04-24T15:09:58;10.60;99.90
5358;DHT22;2702;51.014;7.170;2023-04-24T15:12:24;10.30;99.90
5358;DHT22;2702;51.014;7.170;2023-04-24T15:14:58;10.20;99.90
5358;DHT22;2702;51.014;7.170;2023-04-24T15:17:27;10.10;99.90
5358;DHT22;2702;51.014;7.170;2023-04-24T15:19:53;10.10;99.90
5358;DHT22;2702;51.014;7.170;2023-04-24T15:22:19;10.30;99.90
5358;DHT22;2702;51.014;7.170;2023-04-24T15:24:45;10.30;99.90
5358;DHT22;2702;51.014;7.170;2023-04-24T15:27:11;10.40;99.90
5358;DHT22;2702;51.014;7.170;2023-04-24T15:29:37;10.30;99.90
5358;DHT22;2702;51.014;7.170;2023-04-24T15:32:03;10.70;99.90
5358;DHT22;2702;51.014;7.170;2023-04-24T15:34:29;10.70;99.90
5358;DHT22;2702;51.014;7.170;2023-04-24T15:36:58;10.50;99.90
5358;DHT22;2702;51.014;7.170;2023-04-24T15:39:24;10.40;99.90
5358;DHT22;2702;51.014;7.170;2023-04-24T15:41:50;10.30;99.90
5358;DHT22;2702;51.014;7.170;2023-04-24T15:44:16;10.20;99.90
5358;DHT22;2702;51.014;7.170;2023-04-24T15:46:42;10.30;99.90
5358;DHT22;2702;51.014;7.170;2023-04-24T15:49:08;10.30;99.90
5358;DHT22;2702;51.014;7.170;2023-04-24T15:51:34;10.20;99.90
5358;DHT22;2702;51.014;7.170;2023-04-24T15:54:00;10.40;99.90
5358;DHT22;2702;51.014;7.170;2023-04-24T15:56:26;10.60;99.90
5358;DHT22;2702;51.014;7.170;2023-04-24T15:58:52;10.70;99.90
5358;DHT22;2702;51.014;7.170;2023-04-24T16:01:18;10.50;99.90
5358;DHT22;2702;51.014;7.170;2023-04-24T16:03:44;10.50;99.90
5358;DHT22;2702;51.014;7.170;2023-04-24T16:06:11;10.50;99.90
5358;DHT22;2702;51.014;7.170;2023-04-24T16:08:37;10.40;99.90
5358;DHT22;2702;51.014;7.170;2023-04-24T16:11:03;10.50;99.90
5358;DHT22;2702;51.014;7.170;2023-04-24T16:13:28;10.60;99.90
5358;DHT22;2702;51.014;7.170;2023-04-24T16:15:56;10.60;99.90
5358;DHT22;2702;51.014;7.170;2023-04-24T16:18:22;10.40;99.90
5358;DHT22;2702;51.014;7.170;2023-04-24T16:20:49;10.20;99.90
5358;DHT22;2702;51.014;7.170;2023-04-24T16:23:15;10.20;99.90
5358;DHT22;2702;51.014;7.170;2023-04-24T16:25:41;10.30;99.90